DIRECCIÓN GENERAL DE AERONÁUTICA CIVIL
DIRECCIÓN METEOROLÓGICA DE CHILE
INFORMACIÓN METAR Y TAF

FIR SANTIAGO

Estación: SCSE
METAR SCSE 161100Z 00000KT 9999 OVC012 14/11 Q1015=

TAF SCSE 161015Z 1612/1712 VRB02KT 9999 BKN010 TX18/1619Z TN11/1710Z TEMPO 1612/1613 15004KT 3000 BR OVC010 BECMG 1614/1616 28010KT SCT015 BECMG 1616/1618 CAVOK BECMG 1700/1702 VRB02KT TEMPO 1710/1712 BKN010 =

Estación: SCER
METAR SCER 151400Z 07005KT 2000 BR OVC003 12/12 Q1014=

TAF SCER NIL=

Estación: SCRD
METAR SCRD 151900Z 36006KT 8000 1000N VCFG SCT003 14/07 Q1013=

TAF SCRD 161016Z 1612/1624 26004KT 5000 BR SCT008 TX18/1618Z TN10/ 1612Z TEMPO 1612/1613 2000 BR BKN003 BECMG 1615/1617 22012KT 9999 SCT015 BECMG 1617/1619 20018KT CAVOK=

Estación: SCVM
METAR SCVM 161100Z 00000KT 4000 BR OVC009 12/11 Q1015=

TAF SCVM 161015Z 1612/1712 VRB02KT 4000 BR OVC010 TX19/1619Z TN10/ 1710Z TEMPO 1612/1614 1500 BR BKN005 BECMG 1614/1616 31010KT 5000 BR BKN015 BECMG 1616/1618 8000 SCT015 BECMG 1618/1620 28015KT CAVOK BECMG 1700/1702 VRB02KT TEMPO 1710/1712 5000 BR BKN010=

Estación: SCTB
METAR SCTB 161100Z 09001KT 5000 HZ BKN150 12/10 Q1015=

TAF SCTB 161017Z 1612/1624 VRB02KT CAVOK TX23/1618Z TN08/1612Z TEMPO 1612/1613 5000 BR SCT180 BECMG 1616/1618 23008KT BECMG 1618/1620 SCT040=

Estación: SCEL
METAR SCEL 161000Z 33003KT 6000 BKN180 10/07 Q1015 NOSIG=

TAF SCEL 161015Z 1612/1712 17004KT CAVOK TX23/1619Z TN08/1710Z TEMPO 1612/1613 0800 BCFG SCT003 BKN180 BECMG 1614/1616 19012KT TEMPO 1619/1622 SCT033 BECMG 1700/1702 16005KT TEMPO 1710/1712 VRB02KT 5000 BR=

Estación: SCSN
METAR SCSN 161100Z 00000KT 3000 BR OVC007 10/09 Q1016=

TAF SCSN 161015Z 1612/1624 26004KT 5000 BR BKN010 TX18/1619Z TN10/ 1612Z TEMPO 1612/1613 VRB02KT 2000 -DZ OVC008 BECMG 1614/1616 23012KT 9999 SCT010 BECMG 1618/1620 CAVOK=

Estación: SCRG
METAR SCRG 152000Z 19013KT CAVOK 25/13 Q1011=

TAF SCRG 161018Z 1612/1624 VRB02KT 6000 NSC TX22/1618Z TN09/1612Z TEMPO 1612/1613 2000 BR BKN003 BKN180 BECMG 1614/1616 19012KT CAVOK=

Estación: SCIC
SPECI SCIC 161018Z AUTO 21009KT 180V240 9999 OVC009 12/09 Q1015=

TAF SCIC 161019Z 1612/1624 18005KT 2000 BR OVC007 TX20/1618Z TN10/ 1612Z TEMPO 1612/1614 0800 FG OVC002 BECMG 1615/1617 21015KT 5000 BR BECMG 1617/1619 18010KT CAVOK=

Estación: SCCH
METAR SCCH 152200Z 18003KT 9999 SCT040 BKN200 20/12 Q1013=

TAF SCCH 161020Z 1612/1624 18004KT 5000 BR SCT010 TX19/1618Z TN10/ 1612Z BECMG 1614/1616 20015KT CAVOK BECMG 1616/1618 BKN018=

Estación: SCIE
METAR SCIE 161100Z 00000KT CAVOK 07/06 Q1018=

TAF SCIE 161015Z 1612/1712 VRB02KT CAVOK TX18/1618Z TN08/1710Z BECMG 1614/1616 21010KT TEMPO 1616/1622 SCT030 BECMG 1700/1702 18008KT TEMPO 1710/1712 5000 BR BKN005=

Estación: SCGE
METAR SCGE 152100Z 18006KT 9999 BKN027 22/11 Q1013=

TAF SCGE 161021Z 1612/1624 18005KT CAVOK TX19/1618Z TN10/1612Z TEMPO 1612/1613 5000 BR SCT010 BECMG 1616/1618 21018KT SCT020=


Volver